Time;durP1;ratioP1;P1;durP2;ratioP2;P2;SDS_P1;SDS_P2;PMS_P1;PMS_P2;Temp;Humidity;BMP_temperature;BMP_pressure;BME280_temperature;BME280_humidity;BME280_pressure;Samples;Min_cycle;Max_cycle;Signal;HPM_P1;HPM_P2
2021/04/02 00:00:37;;;;;;;14.15;4.50;;;12.40;89.60;;;;;;5092843;28;20252;-71
2021/04/02 00:03:25;;;;;;;8.93;4.47;;;12.30;90.50;;;;;;5093092;28;20608;-71
2021/04/02 00:05:52;;;;;;;9.18;5.45;;;12.20;90.90;;;;;;5091861;28;20204;-72
2021/04/02 00:08:19;;;;;;;10.65;4.55;;;12.30;91.00;;;;;;5092768;28;20223;-72
2021/04/02 00:10:52;;;;;;;13.05;5.72;;;12.20;91.00;;;;;;5092757;28;20245;-72
2021/04/02 00:13:20;;;;;;;8.38;5.22;;;12.20;91.30;;;;;;5095301;28;20172;-70
2021/04/02 00:15:48;;;;;;;14.50;5.68;;;12.20;91.40;;;;;;5095960;28;20203;-70
2021/04/02 00:18:14;;;;;;;7.65;4.47;;;12.20;91.50;;;;;;5096424;28;20228;-72
2021/04/02 00:20:40;;;;;;;15.50;5.20;;;12.20;92.10;;;;;;5096489;28;20578;-73
2021/04/02 00:23:07;;;;;;;12.40;6.00;;;12.10;92.20;;;;;;5096378;28;20250;-70
2021/04/02 00:25:35;;;;;;;12.18;5.65;;;12.20;92.50;;;;;;5095461;28;20437;-72
2021/04/02 00:28:02;;;;;;;14.15;6.38;;;12.10;92.60;;;;;;5096311;28;20179;-72
2021/04/02 00:30:37;;;;;;;12.63;4.53;;;12.10;92.80;;;;;;5094872;28;20504;-71
2021/04/02 00:33:03;;;;;;;14.40;6.03;;;12.10;93.00;;;;;;5094906;28;20174;-72
2021/04/02 00:35:28;;;;;;;9.20;5.57;;;12.00;93.60;;;;;;5095438;28;20204;-73
2021/04/02 00:37:54;;;;;;;11.40;5.70;;;12.00;93.60;;;;;;5094775;28;20406;-72
2021/04/02 00:40:33;;;;;;;13.27;7.40;;;11.90;93.80;;;;;;5095736;28;20176;-71
2021/04/02 00:42:59;;;;;;;10.40;4.82;;;11.90;94.30;;;;;;5096253;28;20178;-72
2021/04/02 00:45:25;;;;;;;11.73;6.33;;;11.80;94.80;;;;;;5095075;28;20203;-71
2021/04/02 00:47:53;;;;;;;10.27;5.30;;;11.70;95.30;;;;;;5094417;28;20450;-72
2021/04/02 00:50:27;;;;;;;12.35;5.72;;;11.60;95.80;;;;;;5095851;28;20164;-71
2021/04/02 00:52:53;;;;;;;13.32;6.18;;;11.60;96.00;;;;;;5096000;28;20622;-72
2021/04/02 00:55:19;;;;;;;13.20;5.63;;;11.50;96.60;;;;;;5093624;28;20180;-71
2021/04/02 00:57:45;;;;;;;9.07;5.03;;;11.50;97.10;;;;;;5095607;28;20525;-72
2021/04/02 01:00:12;;;;;;;9.00;3.95;;;11.50;97.00;;;;;;5095325;28;20207;-71
2021/04/02 01:02:39;;;;;;;13.20;6.80;;;11.50;97.10;;;;;;5095653;28;20167;-71
2021/04/02 01:05:14;;;;;;;14.93;5.45;;;11.40;97.90;;;;;;5095025;28;20217;-72
2021/04/02 01:07:41;;;;;;;12.00;5.30;;;11.40;98.30;;;;;;5095583;28;20163;-72
2021/04/02 01:10:14;;;;;;;13.32;6.13;;;11.30;99.10;;;;;;5095394;28;20191;-72
2021/04/02 01:12:40;;;;;;;12.18;7.80;;;11.30;99.40;;;;;;5094425;28;20218;-71
2021/04/02 01:15:24;;;;;;;12.97;6.87;;;11.30;99.50;;;;;;5094562;28;20554;-71
2021/04/02 01:17:52;;;;;;;11.52;7.53;;;11.20;99.90;;;;;;5095006;28;20587;-71
2021/04/02 01:20:20;;;;;;;13.35;5.15;;;11.30;99.90;;;;;;5095212;28;20658;-72
2021/04/02 01:22:48;;;;;;;12.20;6.40;;;11.20;99.90;;;;;;5095034;28;20175;-71
2021/04/02 01:25:26;;;;;;;14.27;6.65;;;11.20;99.90;;;;;;5094452;28;20160;-71
2021/04/02 01:28:26;;;;;;;13.57;6.70;;;11.20;99.90;;;;;;5093911;28;20176;-70
2021/04/02 01:30:56;;;;;;;16.40;7.28;;;11.20;99.90;;;;;;5061897;28;20271;-72
2021/04/02 01:33:22;;;;;;;15.82;5.45;;;11.10;99.90;;;;;;5094784;28;20182;-71
2021/04/02 01:35:49;;;;;;;8.85;5.05;;;11.10;99.90;;;;;;5094058;28;20188;-72
2021/04/02 01:38:21;;;;;;;10.40;6.07;;;11.10;99.90;;;;;;5094903;28;20168;-73
2021/04/02 01:40:52;;;;;;;10.75;5.22;;;11.00;99.90;;;;;;5095408;28;20171;-71
2021/04/02 01:43:23;;;;;;;10.30;4.60;;;11.00;99.90;;;;;;5094822;28;20156;-72
2021/04/02 01:45:51;;;;;;;12.98;6.05;;;10.90;99.90;;;;;;5074116;28;20559;-72
2021/04/02 01:48:18;;;;;;;11.68;6.72;;;10.90;99.90;;;;;;5074442;28;20169;-71
2021/04/02 01:50:47;;;;;;;13.00;4.47;;;10.80;99.90;;;;;;5074506;28;20168;-71
2021/04/02 01:53:15;;;;;;;12.50;5.90;;;10.70;99.90;;;;;;5074400;28;20160;-72
2021/04/02 01:55:42;;;;;;;11.75;6.88;;;10.70;99.90;;;;;;5079431;28;20523;-71
2021/04/02 01:58:09;;;;;;;13.60;5.10;;;10.60;99.90;;;;;;5094438;28;20237;-71
2021/04/02 02:00:40;;;;;;;12.05;5.93;;;10.60;99.90;;;;;;5094464;28;20522;-71
2021/04/02 02:03:07;;;;;;;8.65;4.57;;;10.60;99.90;;;;;;5094539;28;20565;-70
2021/04/02 02:05:34;;;;;;;13.20;5.45;;;10.60;99.90;;;;;;5093799;28;20191;-71
2021/04/02 02:08:02;;;;;;;9.98;4.35;;;10.50;99.90;;;;;;5094223;28;20178;-71
2021/04/02 02:10:28;;;;;;;10.32;4.95;;;10.50;99.90;;;;;;5093753;28;20167;-71
2021/04/02 02:12:56;;;;;;;10.70;6.20;;;10.50;99.90;;;;;;5092907;28;20665;-70
2021/04/02 02:15:23;;;;;;;10.35;5.07;;;10.40;99.90;;;;;;5093736;28;20792;-71
2021/04/02 02:18:01;;;;;;;6.63;3.35;;;10.40;99.90;;;;;;5093981;28;20719;-72
2021/04/02 02:20:29;;;;;;;10.05;4.10;;;10.40;99.90;;;;;;5074169;28;20172;-72
2021/04/02 02:22:57;;;;;;;6.97;4.05;;;10.30;99.90;;;;;;5073813;28;20588;-71
2021/04/02 02:25:25;;;;;;;8.60;4.10;;;10.30;99.90;;;;;;5073300;28;20184;-71
2021/04/02 02:27:52;;;;;;;10.85;4.20;;;10.40;99.90;;;;;;5073756;28;20164;-72
2021/04/02 02:30:26;;;;;;;7.82;4.38;;;10.30;99.90;;;;;;5073662;28;20168;-71
2021/04/02 02:32:53;;;;;;;7.78;5.15;;;10.20;99.90;;;;;;5075023;28;20587;-70
2021/04/02 02:35:19;;;;;;;6.55;3.53;;;10.20;99.90;;;;;;5092478;28;20203;-71
2021/04/02 02:37:46;;;;;;;10.02;4.45;;;10.10;99.90;;;;;;5093879;28;20254;-72
2021/04/02 02:40:23;;;;;;;8.20;3.25;;;10.10;99.90;;;;;;5093737;28;20202;-71
2021/04/02 02:42:50;;;;;;;7.20;3.25;;;10.00;99.90;;;;;;5093759;28;20174;-72
2021/04/02 02:45:17;;;;;;;9.63;3.97;;;10.00;99.90;;;;;;5093006;28;20182;-72
2021/04/02 02:47:43;;;;;;;10.75;3.40;;;9.80;99.90;;;;;;5093609;28;20564;-71
2021/04/02 02:50:15;;;;;;;7.07;3.13;;;9.80;99.90;;;;;;5093668;28;20302;-71
2021/04/02 02:52:41;;;;;;;6.85;2.38;;;9.80;99.90;;;;;;5093445;28;20175;-72
2021/04/02 02:55:09;;;;;;;8.30;3.13;;;9.70;99.90;;;;;;5093174;28;20227;-71
2021/04/02 02:57:36;;;;;;;6.20;3.20;;;9.70;99.90;;;;;;5093412;28;20164;-71
2021/04/02 03:00:10;;;;;;;6.22;2.78;;;9.70;99.90;;;;;;5093634;28;20275;-71
2021/04/02 03:02:36;;;;;;;8.55;3.70;;;9.60;99.90;;;;;;5092128;28;20592;-72
2021/04/02 03:05:04;;;;;;;6.75;2.35;;;9.50;99.90;;;;;;5092807;28;20255;-72
2021/04/02 03:07:33;;;;;;;6.18;2.50;;;9.40;99.90;;;;;;5093585;28;20164;-72
2021/04/02 03:09:59;;;;;;;6.55;3.70;;;9.40;99.90;;;;;;5093714;28;20168;-70
2021/04/02 03:12:27;;;;;;;9.45;3.30;;;9.40;99.90;;;;;;5093456;28;20167;-71
2021/04/02 03:14:53;;;;;;;6.60;2.35;;;9.40;99.90;;;;;;5091751;28;20176;-71
2021/04/02 03:17:21;;;;;;;3.93;1.60;;;9.30;99.90;;;;;;5093136;28;20726;-71
2021/04/02 03:19:48;;;;;;;4.10;1.38;;;9.30;99.90;;;;;;5093341;28;20286;-70
2021/04/02 03:22:17;;;;;;;5.82;2.45;;;9.30;99.90;;;;;;5092157;28;20169;-71
2021/04/02 03:24:45;;;;;;;9.57;3.10;;;9.30;99.90;;;;;;5092883;28;20186;-72
2021/04/02 03:27:13;;;;;;;5.63;2.08;;;9.30;99.90;;;;;;5093098;28;20188;-73
2021/04/02 03:29:39;;;;;;;5.25;2.13;;;9.30;99.90;;;;;;5093565;28;20171;-71
2021/04/02 03:32:09;;;;;;;6.17;1.80;;;9.30;99.90;;;;;;5093213;28;20174;-72
2021/04/02 03:34:37;;;;;;;4.20;1.85;;;9.20;99.90;;;;;;5092631;28;20528;-72
2021/04/02 03:37:07;;;;;;;5.32;2.65;;;9.10;99.90;;;;;;5093255;28;20184;-71
2021/04/02 03:39:36;;;;;;;4.57;1.70;;;9.00;99.90;;;;;;5093488;28;20560;-70
2021/04/02 03:42:04;;;;;;;6.65;1.73;;;9.00;99.90;;;;;;5093095;28;20184;-71
2021/04/02 03:44:32;;;;;;;6.53;2.10;;;8.90;99.90;;;;;;5092739;28;20170;-71
2021/04/02 03:47:01;;;;;;;4.35;1.60;;;8.80;99.90;;;;;;5095223;28;20189;-71
2021/04/02 03:49:30;;;;;;;5.68;2.10;;;8.80;99.90;;;;;;5095413;28;20652;-70
2021/04/02 03:52:04;;;;;;;4.43;1.48;;;8.80;99.90;;;;;;5096993;28;20165;-72
2021/04/02 03:54:33;;;;;;;5.03;1.65;;;8.70;99.90;;;;;;5095184;28;20174;-71
2021/04/02 03:57:01;;;;;;;3.83;0.82;;;8.60;99.90;;;;;;5096574;28;20191;-71
2021/04/02 03:59:30;;;;;;;4.80;1.15;;;8.60;99.90;;;;;;5096758;28;20207;-70
2021/04/02 04:01:56;;;;;;;4.78;2.05;;;8.50;99.90;;;;;;5095524;28;20700;-72
2021/04/02 04:04:25;;;;;;;11.27;1.53;;;8.50;99.90;;;;;;5094824;28;20209;-72
2021/04/02 04:06:58;;;;;;;6.97;1.63;;;8.50;99.90;;;;;;5096205;28;20200;-72
2021/04/02 04:09:27;;;;;;;4.68;1.10;;;8.40;99.90;;;;;;5095314;28;20212;-70
2021/04/02 04:11:55;;;;;;;3.90;1.15;;;8.40;99.90;;;;;;5096615;28;20175;-71
2021/04/02 04:14:22;;;;;;;4.93;1.80;;;8.20;99.90;;;;;;5094882;28;20212;-72
2021/04/02 04:16:48;;;;;;;3.70;0.88;;;8.20;99.90;;;;;;5096505;28;20237;-71
2021/04/02 04:19:18;;;;;;;3.95;1.30;;;8.10;99.90;;;;;;5094586;28;20210;-71
2021/04/02 04:21:45;;;;;;;4.47;1.20;;;8.10;99.90;;;;;;5095070;28;20531;-72
2021/04/02 04:24:22;;;;;;;4.88;1.88;;;8.10;99.90;;;;;;5095950;28;20167;-71
2021/04/02 04:26:51;;;;;;;4.78;0.98;;;8.00;99.90;;;;;;5096288;28;20184;-71
2021/04/02 04:29:33;;;;;;;5.93;1.38;;;8.00;99.90;;;;;;5096022;28;20168;-71
2021/04/02 04:32:00;;;;;;;4.30;1.38;;;7.90;99.90;;;;;;5096316;28;20168;-71
2021/04/02 04:34:27;;;;;;;4.57;1.08;;;7.90;99.90;;;;;;5095324;28;20324;-72
2021/04/02 04:36:55;;;;;;;4.43;1.13;;;7.80;99.90;;;;;;5095859;28;20248;-72
2021/04/02 04:39:22;;;;;;;3.40;0.70;;;7.80;99.90;;;;;;5096049;28;20652;-72
2021/04/02 04:41:51;;;;;;;3.40;0.80;;;7.70;99.90;;;;;;5094815;28;20630;-71
2021/04/02 04:44:20;;;;;;;5.03;0.98;;;7.70;99.90;;;;;;5095734;28;20164;-71
2021/04/02 04:46:46;;;;;;;3.60;1.00;;;7.60;99.90;;;;;;5095768;28;20266;-70
2021/04/02 04:49:12;;;;;;;4.53;1.27;;;7.60;99.90;;;;;;5095534;28;20173;-70
2021/04/02 04:51:39;;;;;;;3.80;1.33;;;7.50;99.90;;;;;;5095982;28;20515;-73
2021/04/02 04:54:06;;;;;;;4.13;1.42;;;7.50;99.90;;;;;;5095520;28;20414;-73
2021/04/02 04:56:35;;;;;;;4.20;1.05;;;7.40;99.90;;;;;;5095314;28;20280;-71
2021/04/02 04:59:02;;;;;;;3.25;0.85;;;7.40;99.90;;;;;;5095363;28;20230;-71
2021/04/02 05:01:34;;;;;;;5.05;1.40;;;7.30;99.90;;;;;;5095668;28;20226;-71
2021/04/02 05:04:02;;;;;;;5.57;1.90;;;7.30;99.90;;;;;;5094929;28;20172;-71
2021/04/02 05:06:29;;;;;;;3.80;0.98;;;7.20;99.90;;;;;;5095139;28;20249;-71
2021/04/02 05:08:59;;;;;;;3.60;0.65;;;7.20;99.90;;;;;;5095611;28;20180;-71
2021/04/02 05:11:27;;;;;;;4.00;0.65;;;7.20;99.90;;;;;;5095471;28;20495;-71
2021/04/02 05:13:55;;;;;;;3.70;0.93;;;7.10;99.90;;;;;;5095179;28;20176;-72
2021/04/02 05:16:23;;;;;;;4.90;1.30;;;7.20;99.90;;;;;;5094210;28;20200;-71
2021/04/02 05:18:51;;;;;;;4.00;1.45;;;7.20;99.90;;;;;;5095324;28;20203;-72
2021/04/02 05:21:17;;;;;;;4.43;1.83;;;7.30;99.90;;;;;;5094070;28;20656;-72
2021/04/02 05:23:43;;;;;;;3.78;1.30;;;7.40;99.90;;;;;;5093771;28;20262;-71
2021/04/02 05:26:12;;;;;;;4.67;1.27;;;7.50;99.90;;;;;;5094983;28;20233;-71
2021/04/02 05:28:38;;;;;;;4.10;1.17;;;7.70;99.90;;;;;;5093791;28;20546;-72
2021/04/02 05:31:05;;;;;;;4.85;1.23;;;7.90;99.90;;;;;;5095065;28;20175;-72
2021/04/02 05:33:31;;;;;;;3.60;0.82;;;8.10;99.90;;;;;;5094629;28;20230;-72
2021/04/02 05:35:57;;;;;;;4.10;0.87;;;8.30;99.90;;;;;;5094543;28;20550;-71
2021/04/02 05:38:23;;;;;;;6.40;2.47;;;8.50;99.90;;;;;;5094845;28;20165;-72
2021/04/02 05:40:49;;;;;;;5.20;1.80;;;8.60;99.90;;;;;;5093120;28;20302;-72
2021/04/02 05:43:17;;;;;;;4.90;1.77;;;8.70;99.90;;;;;;5094842;28;20243;-72
2021/04/02 05:45:45;;;;;;;4.88;1.30;;;8.80;99.90;;;;;;5092941;28;20437;-73
2021/04/02 05:48:11;;;;;;;3.30;0.73;;;9.00;99.90;;;;;;5094979;28;20169;-73
2021/04/02 05:50:38;;;;;;;4.30;1.13;;;9.10;99.90;;;;;;5094607;28;20176;-71
2021/04/02 05:53:12;;;;;;;3.88;1.20;;;9.30;99.90;;;;;;5094253;28;20176;-73
2021/04/02 05:55:40;;;;;;;6.50;1.52;;;9.50;99.30;;;;;;5094046;28;20215;-74
2021/04/02 05:58:08;;;;;;;5.05;1.88;;;9.80;98.10;;;;;;5094781;28;20603;-72
2021/04/02 06:00:35;;;;;;;6.47;2.10;;;9.80;97.30;;;;;;5094615;28;20168;-73
2021/04/02 06:03:02;;;;;;;5.40;1.50;;;9.80;97.30;;;;;;5094446;28;20688;-74
2021/04/02 06:05:28;;;;;;;3.83;1.70;;;9.80;97.30;;;;;;5093916;28;20634;-73
2021/04/02 06:07:56;;;;;;;4.40;1.90;;;10.00;96.50;;;;;;5094075;28;20206;-73
2021/04/02 06:10:23;;;;;;;6.05;2.08;;;10.30;95.90;;;;;;5093968;28;20405;-73
2021/04/02 06:12:56;;;;;;;5.25;1.63;;;10.70;95.20;;;;;;5094354;28;20168;-74
2021/04/02 06:15:22;;;;;;;6.85;2.55;;;11.10;94.40;;;;;;5092432;28;20203;-70
2021/04/02 06:18:04;;;;;;;4.72;1.50;;;11.40;93.60;;;;;;5094020;28;20256;-72
2021/04/02 06:20:39;;;;;;;4.05;1.52;;;11.40;92.40;;;;;;5093982;28;20188;-73
2021/04/02 06:23:22;;;;;;;17.85;2.30;;;11.20;92.60;;;;;;5093669;28;20180;-72
2021/04/02 06:25:49;;;;;;;6.15;2.15;;;10.90;92.60;;;;;;5093710;28;20192;-73
2021/04/02 06:28:23;;;;;;;4.47;1.65;;;10.60;93.10;;;;;;5093788;28;20666;-73
2021/04/02 06:30:56;;;;;;;4.60;1.65;;;10.50;93.80;;;;;;5093878;28;20163;-73
2021/04/02 06:33:29;;;;;;;8.63;1.92;;;10.30;94.10;;;;;;5093990;28;20172;-74
2021/04/02 06:35:55;;;;;;;6.13;2.97;;;10.40;94.80;;;;;;5093227;28;20217;-73
2021/04/02 06:38:21;;;;;;;4.50;2.07;;;10.60;94.00;;;;;;5092543;28;20267;-71
2021/04/02 06:40:46;;;;;;;4.80;1.90;;;10.90;94.00;;;;;;5093997;28;20168;-72
2021/04/02 06:43:12;;;;;;;6.20;2.57;;;11.20;93.30;;;;;;5092203;28;20183;-73
2021/04/02 06:45:39;;;;;;;5.63;2.60;;;11.30;93.20;;;;;;5093395;28;20194;-72
2021/04/02 06:48:13;;;;;;;4.25;1.65;;;11.70;93.00;;;;;;5093903;28;20171;-72
2021/04/02 06:50:39;;;;;;;6.90;2.53;;;11.90;91.90;;;;;;5093751;28;20172;-72
2021/04/02 06:53:06;;;;;;;5.20;2.30;;;12.20;91.20;;;;;;5093832;28;20172;-74
2021/04/02 06:55:32;;;;;;;5.70;2.70;;;12.30;91.00;;;;;;5093209;28;20424;-72
2021/04/02 06:58:09;;;;;;;7.03;2.50;;;12.50;91.60;;;;;;5093431;28;20444;-71
2021/04/02 07:00:37;;;;;;;7.87;2.77;;;12.70;90.50;;;;;;5093354;28;20494;-73
2021/04/02 07:03:06;;;;;;;8.17;2.20;;;12.90;89.80;;;;;;5092260;28;20800;-72
2021/04/02 07:05:33;;;;;;;11.83;2.90;;;12.90;88.80;;;;;;5092960;28;20428;-72
2021/04/02 07:08:07;;;;;;;6.50;3.03;;;12.90;89.80;;;;;;5093489;28;20410;-71
2021/04/02 07:10:39;;;;;;;6.27;2.40;;;13.00;88.50;;;;;;5093382;28;20491;-71
2021/04/02 07:13:07;;;;;;;6.40;2.90;;;13.10;87.50;;;;;;5093227;28;20931;-70
2021/04/02 07:15:35;;;;;;;7.67;2.50;;;13.10;87.10;;;;;;5092928;28;20465;-72
2021/04/02 07:18:02;;;;;;;6.27;2.30;;;13.00;88.00;;;;;;5093148;28;20425;-71
2021/04/02 07:20:28;;;;;;;5.90;2.60;;;13.20;87.50;;;;;;5093281;28;20459;-72
2021/04/02 07:22:55;;;;;;;8.50;2.43;;;13.30;86.70;;;;;;5096134;28;20409;-71
2021/04/02 07:25:21;;;;;;;7.80;2.97;;;13.50;85.70;;;;;;5079008;28;20455;-71
2021/04/02 07:27:47;;;;;;;6.63;3.17;;;13.50;84.70;;;;;;5096779;28;20464;-71
2021/04/02 07:30:14;;;;;;;5.47;2.77;;;13.50;86.20;;;;;;5097518;28;20891;-69
2021/04/02 07:32:48;;;;;;;8.37;2.63;;;13.60;85.00;;;;;;5096097;28;20186;-71
2021/04/02 07:35:19;;;;;;;7.10;2.63;;;13.70;85.10;;;;;;5096576;28;20464;-71
2021/04/02 07:37:54;;;;;;;7.00;2.77;;;14.10;84.00;;;;;;5097025;28;20417;-70
2021/04/02 07:40:23;;;;;;;7.57;3.23;;;14.40;83.80;;;;;;5097132;28;20452;-72
2021/04/02 07:42:53;;;;;;;7.40;3.57;;;14.60;82.50;;;;;;5096863;28;20433;-70
2021/04/02 07:45:22;;;;;;;7.03;2.77;;;14.90;81.10;;;;;;5096638;28;20410;-70
2021/04/02 07:47:54;;;;;;;12.50;3.10;;;15.10;80.00;;;;;;5096514;28;20510;-71
2021/04/02 07:50:53;;;;;;;5.97;3.43;;;15.50;79.30;;;;;;5096993;28;20399;-71
2021/04/02 07:53:20;;;;;;;7.90;2.13;;;15.90;77.20;;;;;;5092506;28;20425;-69
2021/04/02 07:56:00;;;;;;;5.63;3.10;;;16.20;77.00;;;;;;5095860;28;20476;-72
2021/04/02 07:58:29;;;;;;;5.90;2.77;;;16.70;75.00;;;;;;5096857;28;20439;-72
2021/04/02 08:00:57;;;;;;;11.03;2.70;;;17.20;74.00;;;;;;5096761;28;20506;-72
2021/04/02 08:03:27;;;;;;;5.70;2.60;;;17.90;70.80;;;;;;5096912;28;20403;-72
2021/04/02 08:06:10;;;;;;;5.70;2.97;;;18.50;68.90;;;;;;5096307;28;20442;-73
2021/04/02 08:08:48;;;;;;;6.30;3.50;;;19.10;67.30;;;;;;5095347;28;20417;-72
2021/04/02 08:11:26;;;;;;;5.60;2.57;;;19.90;65.20;;;;;;5094312;28;20432;-72
2021/04/02 08:14:00;;;;;;;5.10;2.77;;;20.40;62.70;;;;;;5096215;28;20741;-71
2021/04/02 08:16:46;;;;;;;4.97;2.70;;;20.90;60.00;;;;;;5094573;28;20456;-71
2021/04/02 08:19:14;;;;;;;6.20;2.80;;;21.40;59.20;;;;;;5096407;28;20489;-72
2021/04/02 08:21:53;;;;;;;5.33;3.20;;;21.80;58.60;;;;;;5096350;28;20418;-72
2021/04/02 08:24:22;;;;;;;5.73;3.37;;;22.10;57.80;;;;;;5094728;28;20497;-70
2021/04/02 08:26:48;;;;;;;5.27;3.47;;;22.10;55.90;;;;;;5096205;28;20426;-70
2021/04/02 08:29:16;;;;;;;5.57;3.03;;;22.20;55.80;;;;;;5095912;28;20403;-73
2021/04/02 08:31:45;;;;;;;4.93;3.10;;;22.40;56.00;;;;;;5095580;28;20430;-72
2021/04/02 08:34:13;;;;;;;7.50;4.00;;;22.90;55.50;;;;;;5095801;28;20402;-71
2021/04/02 08:36:40;;;;;;;5.50;2.90;;;23.30;53.70;;;;;;5096117;28;20468;-73
2021/04/02 08:39:07;;;;;;;5.10;3.23;;;23.30;54.00;;;;;;5095629;28;20441;-73
2021/04/02 08:41:33;;;;;;;6.87;3.80;;;23.60;53.70;;;;;;5095899;28;20375;-73
2021/04/02 08:44:00;;;;;;;6.43;3.90;;;23.40;53.20;;;;;;5095394;28;20427;-70
2021/04/02 08:46:34;;;;;;;5.80;4.07;;;23.30;53.10;;;;;;5095453;28;20401;-72
2021/04/02 08:49:00;;;;;;;5.30;3.27;;;22.80;52.60;;;;;;5095325;28;20458;-73
2021/04/02 08:51:26;;;;;;;5.60;3.17;;;23.00;53.00;;;;;;5094657;28;20422;-71
2021/04/02 08:53:52;;;;;;;8.60;3.60;;;22.80;53.30;;;;;;5095500;28;20527;-70
2021/04/02 08:56:22;;;;;;;6.27;3.10;;;23.20;52.50;;;;;;5095688;28;20575;-71
2021/04/02 08:58:49;;;;;;;6.30;3.50;;;23.10;52.10;;;;;;5095217;28;20528;-71
2021/04/02 09:01:17;;;;;;;6.87;3.53;;;22.60;52.10;;;;;;5095621;28;20789;-72
2021/04/02 09:03:44;;;;;;;6.30;3.93;;;21.90;52.40;;;;;;5094093;28;20447;-71
2021/04/02 09:06:12;;;;;;;5.10;3.40;;;20.30;54.30;;;;;;5095026;28;20441;-70
2021/04/02 09:08:38;;;;;;;5.90;3.70;;;19.10;56.50;;;;;;5095621;28;20434;-70
2021/04/02 09:11:12;;;;;;;6.00;3.40;;;18.10;58.00;;;;;;5095594;28;20404;-67
2021/04/02 09:13:49;;;;;;;7.33;4.27;;;17.50;58.90;;;;;;5095317;28;20404;-70
2021/04/02 09:16:19;;;;;;;6.20;3.60;;;17.20;59.50;;;;;;5095353;28;20429;-70
2021/04/02 09:18:56;;;;;;;6.97;3.30;;;16.90;60.60;;;;;;5076919;28;20462;-68
2021/04/02 09:21:24;;;;;;;7.67;3.83;;;16.60;61.40;;;;;;5093650;28;20421;-69
2021/04/02 09:23:51;;;;;;;6.23;3.00;;;16.10;63.00;;;;;;5094795;28;20391;-69
2021/04/02 09:26:17;;;;;;;7.37;3.57;;;15.80;63.70;;;;;;5095292;28;20929;-68
2021/04/02 09:28:44;;;;;;;6.83;3.57;;;15.50;64.40;;;;;;5095291;28;20807;-68
2021/04/02 09:31:25;;;;;;;6.50;3.50;;;15.40;65.80;;;;;;5094924;28;20412;-69
2021/04/02 09:33:52;;;;;;;5.90;3.40;;;15.40;64.60;;;;;;5094397;28;20744;-70
2021/04/02 09:36:19;;;;;;;7.33;3.53;;;15.90;65.80;;;;;;5094519;28;20448;-69
2021/04/02 09:38:46;;;;;;;5.67;3.37;;;16.40;64.20;;;;;;5094395;28;20535;-67
2021/04/02 09:41:14;;;;;;;7.43;4.37;;;16.90;63.40;;;;;;5093307;28;20410;-70
2021/04/02 09:43:48;;;;;;;6.93;3.47;;;17.70;62.90;;;;;;5094855;28;20403;-70
2021/04/02 09:46:56;;;;;;;12.90;4.60;;;18.70;59.10;;;;;;5094252;28;20493;-72
2021/04/02 09:49:24;;;;;;;7.47;3.40;;;19.20;58.10;;;;;;5094611;28;20417;-70
2021/04/02 09:51:52;;;;;;;4.90;2.83;;;20.20;56.60;;;;;;5093406;28;20758;-70
2021/04/02 09:54:19;;;;;;;4.97;3.13;;;20.80;55.40;;;;;;5094165;28;20418;-71
2021/04/02 09:56:46;;;;;;;4.80;3.10;;;21.30;54.00;;;;;;5094179;28;20869;-71
2021/04/02 09:59:13;;;;;;;5.07;3.03;;;22.00;53.50;;;;;;5094713;28;20453;-70
2021/04/02 10:01:41;;;;;;;5.33;3.30;;;22.40;52.70;;;;;;5094135;28;20419;-70
2021/04/02 10:04:08;;;;;;;5.77;3.73;;;22.50;52.50;;;;;;5094196;28;20471;-69
2021/04/02 10:06:34;;;;;;;6.57;3.33;;;22.60;51.50;;;;;;5094266;28;20426;-69
2021/04/02 10:09:00;;;;;;;6.63;3.13;;;21.90;51.40;;;;;;5094374;28;20417;-71
2021/04/02 10:11:26;;;;;;;5.30;3.70;;;20.50;52.80;;;;;;5094237;28;20410;-68
2021/04/02 10:13:53;;;;;;;5.07;2.87;;;19.40;54.30;;;;;;5092600;28;20180;-71
2021/04/02 10:16:19;;;;;;;7.03;3.70;;;19.30;55.00;;;;;;5092351;28;20442;-71
2021/04/02 10:18:48;;;;;;;4.63;3.00;;;19.50;55.20;;;;;;5094013;28;20905;-69
2021/04/02 10:21:14;;;;;;;5.63;3.00;;;19.40;55.00;;;;;;5092922;28;20385;-70
2021/04/02 10:23:40;;;;;;;5.47;3.00;;;19.10;54.40;;;;;;5093909;28;20409;-69
2021/04/02 10:26:05;;;;;;;5.60;3.60;;;18.80;55.60;;;;;;5093639;28;20195;-71
2021/04/02 10:28:32;;;;;;;6.70;3.47;;;18.20;56.70;;;;;;5094210;28;20396;-71
2021/04/02 10:30:59;;;;;;;5.33;3.47;;;17.70;58.20;;;;;;5093809;28;20533;-70
2021/04/02 10:33:24;;;;;;;7.00;3.50;;;17.80;59.20;;;;;;5093991;28;20479;-69
2021/04/02 10:35:51;;;;;;;5.83;3.10;;;17.60;58.10;;;;;;5093573;28;20422;-70
2021/04/02 10:38:17;;;;;;;9.23;4.20;;;17.50;58.50;;;;;;5093839;28;20412;-70
2021/04/02 10:40:43;;;;;;;7.33;4.03;;;17.40;59.00;;;;;;5093405;28;20491;-70
2021/04/02 10:43:09;;;;;;;9.33;3.60;;;17.70;59.20;;;;;;5092456;28;20419;-69
2021/04/02 10:45:35;;;;;;;8.40;3.90;;;18.50;58.50;;;;;;5093231;28;20825;-69
2021/04/02 10:48:03;;;;;;;5.77;3.30;;;19.00;56.30;;;;;;5092494;28;20417;-70
2021/04/02 10:50:29;;;;;;;5.57;3.33;;;19.50;56.30;;;;;;5093618;28;20429;-71
2021/04/02 10:52:56;;;;;;;6.33;3.40;;;19.70;56.80;;;;;;5093798;28;20406;-70
2021/04/02 10:55:22;;;;;;;5.00;3.03;;;19.90;55.80;;;;;;5091717;28;20785;-71
2021/04/02 10:57:48;;;;;;;6.90;3.70;;;19.50;55.20;;;;;;5093561;28;20811;-71
2021/04/02 11:00:16;;;;;;;5.87;3.50;;;18.70;55.70;;;;;;5093496;28;20443;-71
2021/04/02 11:02:42;;;;;;;4.90;2.70;;;17.80;57.00;;;;;;5092265;28;20174;-68
2021/04/02 11:05:09;;;;;;;5.10;3.30;;;17.20;57.20;;;;;;5091375;28;20437;-73
2021/04/02 11:07:35;;;;;;;7.23;3.47;;;16.90;59.10;;;;;;5092057;28;20912;-70
2021/04/02 11:10:03;;;;;;;7.17;3.60;;;16.80;59.30;;;;;;5093554;28;20398;-71
2021/04/02 11:12:29;;;;;;;4.50;2.87;;;17.30;59.20;;;;;;5093423;28;20489;-70
2021/04/02 11:14:55;;;;;;;8.57;3.83;;;17.70;59.40;;;;;;5092839;28;20502;-70
2021/04/02 11:17:22;;;;;;;7.37;3.53;;;17.50;58.60;;;;;;5093356;28;20414;-70
2021/04/02 11:19:48;;;;;;;6.83;3.20;;;17.20;58.40;;;;;;5092989;28;20803;-71
2021/04/02 11:22:14;;;;;;;6.93;4.00;;;16.90;59.80;;;;;;5093390;28;20473;-70
2021/04/02 11:24:39;;;;;;;5.47;2.83;;;16.40;59.30;;;;;;5092776;28;20397;-70
2021/04/02 11:27:06;;;;;;;6.17;3.53;;;15.90;60.10;;;;;;5091924;28;20194;-72
2021/04/02 11:29:31;;;;;;;7.07;3.33;;;15.50;61.90;;;;;;5091611;28;20260;-71
2021/04/02 11:31:57;;;;;;;7.80;3.20;;;15.30;63.10;;;;;;5093363;28;20460;-70
2021/04/02 11:34:22;;;;;;;6.40;3.30;;;15.40;61.70;;;;;;5092379;28;20180;-74
2021/04/02 11:36:48;;;;;;;6.80;3.67;;;15.30;62.80;;;;;;5091810;28;20199;-72
2021/04/02 11:39:14;;;;;;;6.10;3.07;;;15.30;61.60;;;;;;5091826;28;20214;-72
2021/04/02 11:41:40;;;;;;;5.07;2.47;;;15.20;63.30;;;;;;5093120;28;20194;-70
2021/04/02 11:44:06;;;;;;;4.83;2.57;;;15.10;63.90;;;;;;5093287;28;20217;-71
2021/04/02 11:46:31;;;;;;;6.77;2.70;;;15.20;62.60;;;;;;5092992;28;20184;-71
2021/04/02 11:48:57;;;;;;;5.70;2.67;;;15.30;62.10;;;;;;5091510;28;20501;-71
2021/04/02 11:51:23;;;;;;;5.40;2.27;;;15.30;58.70;;;;;;5093044;28;20170;-73
2021/04/02 11:53:48;;;;;;;5.43;2.70;;;15.30;60.20;;;;;;5092569;28;20199;-72
2021/04/02 11:56:14;;;;;;;5.50;2.47;;;15.20;61.60;;;;;;5092934;28;20201;-71
2021/04/02 11:58:40;;;;;;;4.90;2.10;;;15.10;61.20;;;;;;5093021;28;20168;-71
2021/04/02 12:01:05;;;;;;;5.33;2.97;;;15.00;61.30;;;;;;5091646;28;20240;-71
2021/04/02 12:03:31;;;;;;;6.90;3.97;;;14.90;61.90;;;;;;5092307;28;20224;-71
2021/04/02 12:05:57;;;;;;;5.23;2.63;;;14.90;62.60;;;;;;5092283;28;20668;-72
2021/04/02 12:08:22;;;;;;;5.70;2.70;;;15.00;61.60;;;;;;5095498;28;20167;-69
2021/04/02 12:10:49;;;;;;;4.80;2.13;;;15.00;60.60;;;;;;5095231;28;20565;-72
2021/04/02 12:13:14;;;;;;;3.73;2.03;;;14.90;59.20;;;;;;5096384;28;20178;-72
2021/04/02 12:15:40;;;;;;;3.80;1.97;;;14.80;58.50;;;;;;5096152;28;20553;-72
2021/04/02 12:18:06;;;;;;;5.93;2.33;;;14.60;60.00;;;;;;5096338;28;20188;-71
2021/04/02 12:20:32;;;;;;;9.37;2.37;;;14.60;59.70;;;;;;5096466;28;20359;-73
2021/04/02 12:22:58;;;;;;;6.17;2.40;;;14.60;59.70;;;;;;5095931;28;20538;-70
2021/04/02 12:25:24;;;;;;;4.70;2.20;;;14.60;60.80;;;;;;5094696;28;20536;-70
2021/04/02 12:27:50;;;;;;;4.37;2.37;;;14.60;60.80;;;;;;5096332;28;20175;-71
2021/04/02 12:30:16;;;;;;;4.43;2.30;;;14.50;60.00;;;;;;5096277;28;20420;-70
2021/04/02 12:32:42;;;;;;;5.80;2.17;;;14.50;59.30;;;;;;5095760;28;20188;-72
2021/04/02 12:35:09;;;;;;;4.93;1.53;;;14.40;59.20;;;;;;5094221;28;20781;-73
2021/04/02 12:37:35;;;;;;;4.47;1.90;;;14.40;59.40;;;;;;5094453;28;20406;-73
2021/04/02 12:40:06;;;;;;;3.57;1.90;;;14.40;61.40;;;;;;5095909;28;20500;-70
2021/04/02 12:42:32;;;;;;;4.90;1.97;;;14.50;59.00;;;;;;5095912;28;20174;-70
2021/04/02 12:44:57;;;;;;;4.10;1.57;;;14.50;58.30;;;;;;5095341;28;20415;-69
2021/04/02 12:47:23;;;;;;;5.37;2.30;;;14.50;58.30;;;;;;5095438;28;20219;-70
2021/04/02 12:49:49;;;;;;;4.17;1.70;;;14.40;58.40;;;;;;5096195;28;20173;-71
2021/04/02 12:52:15;;;;;;;3.87;1.73;;;14.20;59.50;;;;;;5095774;28;20184;-70
2021/04/02 12:54:41;;;;;;;4.70;2.03;;;14.10;59.70;;;;;;5094125;28;20748;-72